Time;durP1;ratioP1;P1;durP2;ratioP2;P2;SDS_P1;SDS_P2;PMS_P1;PMS_P2;Temp;Humidity;BMP_temperature;BMP_pressure;BME280_temperature;BME280_humidity;BME280_pressure;Samples;Min_cycle;Max_cycle;Signal;HPM_P1;HPM_P2
2022/03/07 00:01:56;;;;;;;;;;;2.30;85.50;;;;;;4963474;28;19910;-88
2022/03/07 00:04:47;;;;;;;;;;;2.30;85.60;;;;;;4963548;28;19914;-86
2022/03/07 00:07:44;;;;;;;;;;;2.30;85.60;;;;;;4963463;28;20385;-87
2022/03/07 00:10:29;;;;;;;;;;;2.30;85.80;;;;;;4962938;28;20366;-87
2022/03/07 00:13:26;;;;;;;;;;;;;;;;;;;;;
2022/03/07 00:16:22;;;;;;;;;;;2.20;86.10;;;;;;4963815;28;20009;-87
2022/03/07 00:18:53;;;;;;;;;;;2.10;86.30;;;;;;4962692;28;19918;-87
2022/03/07 00:21:29;;;;;;;;;;;2.00;86.50;;;;;;4947533;28;19921;-86
2022/03/07 00:24:04;;;;;;;;;;;2.10;86.60;;;;;;4979980;28;19946;-86
2022/03/07 00:26:32;;;;;;;;;;;2.00;86.80;;;;;;4947367;28;19914;-87
2022/03/07 00:29:28;;;;;;;;;;;;;;;;;;;;;
2022/03/07 00:31:54;;;;;;;;;;;2.00;86.80;;;;;;4980159;28;19922;-86
2022/03/07 00:34:20;;;;;;;;;;;2.00;86.80;;;;;;4962639;28;20009;-86
2022/03/07 00:36:53;;;;;;;;;;;1.90;86.80;;;;;;4970736;28;19902;-87
2022/03/07 00:39:42;;;;;;;;;;;1.90;86.90;;;;;;4985915;28;19966;-86
2022/03/07 00:42:07;;;;;;;;;;;1.90;87.10;;;;;;4987199;28;19910;-85
2022/03/07 00:44:33;;;;;;;;;;;1.90;87.30;;;;;;4982149;28;19914;-86
2022/03/07 00:47:08;;;;;;;;;;;;;;;;;;;;;
2022/03/07 00:49:34;;;;;;;;;;;1.80;87.60;;;;;;4993441;28;19961;-83
2022/03/07 00:52:19;;;;;;;;;;;;;;;;;;;;;
2022/03/07 00:54:55;;;;;;;;;;;;;;;;;;;;;
2022/03/07 00:57:42;;;;;;;;;;;1.70;88.00;;;;;;4983030;28;20008;-85
2022/03/07 01:00:36;;;;;;;;;;;1.70;88.20;;;;;;4986977;28;19910;-83
2022/03/07 01:03:20;;;;;;;;;;;;;;;;;;;;;
2022/03/07 01:05:56;;;;;;;;;;;;;;;;;;;;;
2022/03/07 01:08:47;;;;;;;;;;;1.60;88.70;;;;;;4978791;28;19911;-86
2022/03/07 01:11:15;;;;;;;;;;;1.50;88.80;;;;;;4962303;28;19938;-86
2022/03/07 01:13:43;;;;;;;;;;;1.50;88.90;;;;;;4961318;28;19910;-86
2022/03/07 01:16:16;;;;;;;;;;;1.50;89.00;;;;;;4961945;28;21147;-86
2022/03/07 01:18:44;;;;;;;;;;;1.50;89.00;;;;;;4960891;28;19910;-85
2022/03/07 01:21:12;;;;;;;;;;;1.50;89.10;;;;;;4978469;28;19917;-86
2022/03/07 01:23:58;;;;;;;;;;;1.40;89.10;;;;;;4961098;28;20378;-85
2022/03/07 01:26:51;;;;;;;;;;;1.40;89.20;;;;;;4978060;28;19910;-87
2022/03/07 01:29:19;;;;;;;;;;;1.40;89.20;;;;;;4961225;28;19914;-86
2022/03/07 01:31:57;;;;;;;;;;;;;;;;;;;;;
2022/03/07 01:34:28;;;;;;;;;;;1.30;89.20;;;;;;4962879;28;19928;-86
2022/03/07 01:37:02;;;;;;;;;;;1.30;89.40;;;;;;4961291;28;19914;-86
2022/03/07 01:39:30;;;;;;;;;;;1.30;89.50;;;;;;4960820;28;19918;-86
2022/03/07 01:45:27;;;;;;;;;;;1.30;89.70;;;;;;4950363;28;19918;-86
2022/03/07 01:48:01;;;;;;;;;;;1.30;89.80;;;;;;4961812;28;19976;-86
2022/03/07 01:50:32;;;;;;;;;;;1.20;89.70;;;;;;4962379;28;19937;-87
2022/03/07 01:53:12;;;;;;;;;;;1.20;89.80;;;;;;4962196;28;20074;-86
2022/03/07 01:56:08;;;;;;;;;;;1.20;89.90;;;;;;4980446;28;19918;-86
2022/03/07 01:58:39;;;;;;;;;;;1.20;89.90;;;;;;4975620;28;19902;-85
2022/03/07 02:01:10;;;;;;;;;;;1.10;89.90;;;;;;4983502;28;19898;-88
2022/03/07 02:04:03;;;;;;;;;;;1.10;89.90;;;;;;4981888;28;19938;-86
2022/03/07 02:06:33;;;;;;;;;;;1.10;90.00;;;;;;4975299;28;19982;-85
2022/03/07 02:09:11;;;;;;;;;;;1.10;90.00;;;;;;4990910;28;19910;-86
2022/03/07 02:11:46;;;;;;;;;;;1.10;90.00;;;;;;4973854;28;19910;-87
2022/03/07 02:14:22;;;;;;;;;;;1.00;90.00;;;;;;4972069;28;19933;-86
2022/03/07 02:16:56;;;;;;;;;;;1.00;90.00;;;;;;4971672;28;19953;-87
2022/03/07 02:19:34;;;;;;;;;;;1.00;90.00;;;;;;4987024;28;19934;-86
2022/03/07 02:22:05;;;;;;;;;;;1.00;90.10;;;;;;4964618;28;19910;-86
2022/03/07 02:24:56;;;;;;;;;;;1.00;90.10;;;;;;4961162;28;20429;-85
2022/03/07 02:27:22;;;;;;;;;;;0.90;90.10;;;;;;4976859;28;19910;-86
2022/03/07 02:29:55;;;;;;;;;;;0.90;90.10;;;;;;4959640;28;20009;-86
2022/03/07 02:32:22;;;;;;;;;;;0.90;90.10;;;;;;4944113;28;19965;-87
2022/03/07 02:34:53;;;;;;;;;;;0.90;90.20;;;;;;4959910;28;19918;-85
2022/03/07 02:37:19;;;;;;;;;;;0.80;90.20;;;;;;4959851;28;19922;-85
2022/03/07 02:39:56;;;;;;;;;;;0.90;90.30;;;;;;4959975;28;19930;-86
2022/03/07 02:45:33;;;;;;;;;;;0.80;90.30;;;;;;4946787;28;19910;-88
2022/03/07 02:48:09;;;;;;;;;;;;;;;;;;;;;
2022/03/07 02:50:57;;;;;;;;;;;0.80;90.30;;;;;;4977659;28;20343;-85
2022/03/07 02:53:29;;;;;;;;;;;0.80;90.30;;;;;;4959222;28;19965;-87
2022/03/07 02:59:09;;;;;;;;;;;0.80;90.40;;;;;;4956215;28;19910;-86
2022/03/07 03:01:53;;;;;;;;;;;;;;;;;;;;;
2022/03/07 03:04:34;;;;;;;;;;;;;;;;;;;;;
2022/03/07 03:07:34;;;;;;;;;;;0.80;90.50;;;;;;4973347;28;19914;-86
2022/03/07 03:12:53;;;;;;;;;;;0.70;90.60;;;;;;4970882;28;19945;-87
2022/03/07 03:15:46;;;;;;;;;;;;;;;;;;;;;
2022/03/07 03:21:36;;;;;;;;;;;0.70;90.60;;;;;;4997879;28;19898;-86
2022/03/07 03:26:57;;;;;;;;;;;0.70;90.70;;;;;;4975339;28;19945;-86
2022/03/07 03:29:30;;;;;;;;;;;0.70;90.80;;;;;;4948154;28;19914;-86
2022/03/07 03:32:24;;;;;;;;;;;0.70;90.80;;;;;;4945813;28;19941;-85
2022/03/07 03:35:12;;;;;;;;;;;0.60;91.10;;;;;;4963173;28;19914;-86
2022/03/07 03:40:49;;;;;;;;;;;0.70;91.00;;;;;;4962109;28;19917;-86
2022/03/07 03:43:25;;;;;;;;;;;0.60;91.00;;;;;;4951390;28;19922;-83
2022/03/07 03:46:08;;;;;;;;;;;;;;;;;;;;;
2022/03/07 03:48:47;;;;;;;;;;;;;;;;;;;;;
2022/03/07 03:51:25;;;;;;;;;;;;;;;;;;;;;
2022/03/07 03:54:04;;;;;;;;;;;0.60;91.10;;;;;;4980443;28;19910;-86
2022/03/07 03:56:47;;;;;;;;;;;;;;;;;;;;;
2022/03/07 03:59:15;;;;;;;;;;;0.60;91.10;;;;;;4980088;28;19910;-85
2022/03/07 04:01:46;;;;;;;;;;;0.70;91.20;;;;;;4962442;28;20262;-87
2022/03/07 04:04:20;;;;;;;;;;;0.70;91.10;;;;;;4962212;28;19910;-86
2022/03/07 04:06:48;;;;;;;;;;;0.70;91.10;;;;;;4947363;28;19975;-86
2022/03/07 04:09:42;;;;;;;;;;;0.80;91.00;;;;;;4961882;28;20283;-86
2022/03/07 04:12:13;;;;;;;;;;;0.80;91.00;;;;;;4956684;28;19918;-87
2022/03/07 04:14:48;;;;;;;;;;;0.80;91.00;;;;;;4946470;28;19918;-87
2022/03/07 04:20:35;;;;;;;;;;;0.80;91.00;;;;;;4968614;28;19911;-86
2022/03/07 04:23:03;;;;;;;;;;;0.80;91.10;;;;;;4963237;28;19919;-87
2022/03/07 04:25:42;;;;;;;;;;;0.80;91.10;;;;;;4946573;28;19937;-87
2022/03/07 04:28:15;;;;;;;;;;;0.80;91.10;;;;;;4947029;28;19918;-87
2022/03/07 04:31:04;;;;;;;;;;;0.80;91.20;;;;;;4962730;28;19926;-86
2022/03/07 04:33:38;;;;;;;;;;;0.70;91.30;;;;;;4979418;28;19918;-86
2022/03/07 04:36:20;;;;;;;;;;;0.80;91.30;;;;;;4948067;28;19930;-87
2022/03/07 04:38:56;;;;;;;;;;;0.80;91.30;;;;;;5002132;28;19922;-87
2022/03/07 04:41:31;;;;;;;;;;;0.80;91.40;;;;;;4984914;28;19905;-87
2022/03/07 04:44:21;;;;;;;;;;;0.80;91.40;;;;;;4968884;28;19899;-86
2022/03/07 04:46:49;;;;;;;;;;;0.70;91.40;;;;;;4962318;28;19968;-87
2022/03/07 04:49:28;;;;;;;;;;;;;;;;;;;;;
2022/03/07 04:52:18;;;;;;;;;;;0.80;91.40;;;;;;4979480;28;20354;-86
2022/03/07 04:55:04;;;;;;;;;;;0.80;91.50;;;;;;4961330;28;19969;-87
2022/03/07 04:58:15;;;;;;;;;;;0.80;91.50;;;;;;4961406;28;19921;-87
2022/03/07 05:01:18;;;;;;;;;;;0.80;91.50;;;;;;4962002;28;19917;-86
2022/03/07 05:10:12;;;;;;;;;;;0.70;91.60;;;;;;4908981;29;20009;-86
2022/03/07 05:12:40;;;;;;;;;;;0.60;91.60;;;;;;4903484;29;19919;-86
2022/03/07 05:15:14;;;;;;;;;;;0.60;91.70;;;;;;4903015;29;19916;-86
2022/03/07 05:18:09;;;;;;;;;;;0.60;91.70;;;;;;4919655;29;20018;-86
2022/03/07 05:20:39;;;;;;;;;;;0.60;91.80;;;;;;4891302;29;19911;-87
2022/03/07 05:23:05;;;;;;;;;;;0.60;91.80;;;;;;4887782;29;19927;-87
2022/03/07 05:25:36;;;;;;;;;;;0.50;91.80;;;;;;4950852;28;19915;-83
2022/03/07 05:28:05;;;;;;;;;;;0.50;91.90;;;;;;4961572;28;19910;-86
2022/03/07 05:34:19;;;;;;;;;;;;;;;;;;;;;
2022/03/07 05:36:48;;;;;;;;;;;0.50;92.10;;;;;;4953968;29;19919;-87
2022/03/07 05:39:47;;;;;;;;;;;;;;;;;;;;;
2022/03/07 05:42:22;;;;;;;;;;;0.50;92.20;;;;;;4958778;29;19911;-86
2022/03/07 05:44:56;;;;;;;;;;;0.40;92.20;;;;;;4941988;29;20021;-87
2022/03/07 05:47:48;;;;;;;;;;;;;;;;;;;;;
2022/03/07 05:50:32;;;;;;;;;;;;;;;;;;;;;
2022/03/07 05:56:02;;;;;;;;;;;;;;;;;;;;;
2022/03/07 05:58:58;;;;;;;;;;;;;;;;;;;;;
2022/03/07 06:08:20;;;;;;;;;;;;;;;;;;;;;
2022/03/07 06:10:59;;;;;;;;;;;;;;;;;;;;;
2022/03/07 06:13:38;;;;;;;;;;;;;;;;;;;;;
2022/03/07 06:16:07;;;;;;;;;;;0.40;92.50;;;;;;4961502;28;19930;-87
2022/03/07 06:21:45;;;;;;;;;;;;;;;;;;;;;
2022/03/07 06:29:06;;;;;;;;;;;;;;;;;;;;;
2022/03/07 06:47:13;;;;;;;;;;;0.30;92.70;;;;;;4795689;29;20367;-90
2022/03/07 06:59:22;;;;;;;;;;;0.30;92.90;;;;;;4684254;30;19916;-89
2022/03/07 07:02:20;;;;;;;;;;;;;;;;;;;;;
2022/03/07 07:08:14;;;;;;;;;;;;;;;;;;;;;
2022/03/07 07:20:27;;;;;;;;;;;0.30;93.00;;;;;;4768386;30;19936;-90
2022/03/07 07:29:41;;;;;;;;;;;;;;;;;;;;;
2022/03/07 07:32:51;;;;;;;;;;;0.40;93.20;;;;;;4710957;30;19914;-88
2022/03/07 07:35:40;;;;;;;;;;;;;;;;;;;;;
2022/03/07 07:41:28;;;;;;;;;;;0.50;93.40;;;;;;4799734;29;20000;-86
2022/03/07 07:47:23;;;;;;;;;;;0.70;93.50;;;;;;4861251;29;20353;-90
2022/03/07 07:57:12;;;;;;;;;;;0.90;93.40;;;;;;4830413;29;19924;-88
2022/03/07 08:12:18;;;;;;;;;;;;;;;;;;;;;
2022/03/07 08:18:21;;;;;;;;;;;;;;;;;;;;;
2022/03/07 08:21:00;;;;;;;;;;;;;;;;;;;;;
2022/03/07 08:35:54;;;;;;;;;;;;;;;;;;;;;
2022/03/07 08:38:44;;;;;;;;;;;2.40;92.20;;;;;;4924487;29;19939;-87
2022/03/07 08:41:41;;;;;;;;;;;2.50;92.10;;;;;;4974941;28;19941;-89
2022/03/07 08:51:10;;;;;;;;;;;;;;;;;;;;;
2022/03/07 09:00:19;;;;;;;;;;;3.10;91.00;;;;;;4829744;29;19963;-87
2022/03/07 09:12:28;;;;;;;;;;;;;;;;;;;;;
2022/03/07 09:32:46;;;;;;;;;;;4.00;83.70;;;;;;4900712;29;20271;-87
2022/03/07 09:35:44;;;;;;;;;;;4.00;83.70;;;;;;4901150;29;19923;-87
2022/03/07 09:38:37;;;;;;;;;;;;;;;;;;;;;
2022/03/07 09:47:33;;;;;;;;;;;4.20;82.50;;;;;;4870703;29;19912;-85
2022/03/07 09:59:59;;;;;;;;;;;4.40;81.00;;;;;;4856644;29;19922;-88
2022/03/07 10:05:52;;;;;;;;;;;;;;;;;;;;;
2022/03/07 10:11:48;;;;;;;;;;;4.60;81.50;;;;;;4840836;29;19912;-87
2022/03/07 10:20:57;;;;;;;;;;;;;;;;;;;;;
2022/03/07 10:33:01;;;;;;;;;;;5.00;78.30;;;;;;4964759;28;20020;-88
2022/03/07 10:51:53;;;;;;;;;;;;;;;;;;;;;
2022/03/07 11:01:28;;;;;;;;;;;5.50;75.50;;;;;;4909204;29;19911;-87
2022/03/07 11:10:17;;;;;;;;;;;5.60;74.60;;;;;;4959880;29;19914;-87
2022/03/07 11:15:55;;;;;;;;;;;5.60;74.00;;;;;;4961384;29;19923;-87
2022/03/07 11:21:58;;;;;;;;;;;;;;;;;;;;;
2022/03/07 11:24:36;;;;;;;;;;;;;;;;;;;;;
2022/03/07 11:27:42;;;;;;;;;;;5.90;74.20;;;;;;5341567;23;19941;-88
2022/03/07 11:30:56;;;;;;;;;;;;;;;;;;;;;
2022/03/07 11:46:57;;;;;;;;;;;;;;;;;;;;;
2022/03/07 11:52:54;;;;;;;;;;;6.20;74.90;;;;;;4929932;29;19930;-94
2022/03/07 11:55:22;;;;;;;;;;;6.20;75.40;;;;;;4940149;29;19923;-87
2022/03/07 12:01:32;;;;;;;;;;;6.30;75.60;;;;;;4962557;29;19910;-88
2022/03/07 12:08:13;;;;;;;;;;;;;;;;;;;;;
2022/03/07 12:11:09;;;;;;;;;;;;;;;;;;;;;
2022/03/07 12:14:12;;;;;;;;;;;;;;;;;;;;;
2022/03/07 12:17:12;;;;;;;;;;;;;;;;;;;;;
2022/03/07 12:26:19;;;;;;;;;;;6.90;76.80;;;;;;4918437;29;19963;-90
2022/03/07 12:29:12;;;;;;;;;;;6.90;76.10;;;;;;4914930;29;19927;-89
2022/03/07 12:41:16;;;;;;;;;;;7.20;77.70;;;;;;4914550;29;19911;-90
2022/03/07 12:44:05;;;;;;;;;;;7.10;77.40;;;;;;4954532;28;19953;-90
2022/03/07 12:47:06;;;;;;;;;;;7.10;77.70;;;;;;4957033;28;19910;-89
2022/03/07 12:49:50;;;;;;;;;;;;;;;;;;;;;
2022/03/07 12:56:15;;;;;;;;;;;;;;;;;;;;;
2022/03/07 13:05:05;;;;;;;;;;;;;;;;;;;;;
2022/03/07 13:10:50;;;;;;;;;;;7.00;75.30;;;;;;4936884;29;20435;-89
2022/03/07 13:13:41;;;;;;;;;;;;;;;;;;;;;
2022/03/07 13:19:50;;;;;;;;;;;7.00;74.90;;;;;;4929626;29;20351;-89
2022/03/07 13:26:06;;;;;;;;;;;;;;;;;;;;;
2022/03/07 13:48:01;;;;;;;;;;;;;;;;;;;;;
2022/03/07 13:57:26;;;;;;;;;;;7.50;73.70;;;;;;4929690;29;19995;-89
2022/03/07 14:00:14;;;;;;;;;;;;;;;;;;;;;
2022/03/07 14:02:54;;;;;;;;;;;7.50;73.00;;;;;;4937584;29;20371;-90
2022/03/07 14:05:57;;;;;;;;;;;;;;;;;;;;;
2022/03/07 14:12:11;;;;;;;;;;;;;;;;;;;;;
2022/03/07 14:40:55;;;;;;;;;;;;;;;;;;;;;
2022/03/07 14:47:22;;;;;;;;;;;7.90;70.00;;;;;;4927239;29;19922;-88
2022/03/07 15:00:11;;;;;;;;;;;;;;;;;;;;;
2022/03/07 15:15:38;;;;;;;;;;;;;;;;;;;;;
2022/03/07 15:28:38;;;;;;;;;;;;;;;;;;;;;
2022/03/07 15:31:25;;;;;;;;;;;;;;;;;;;;;
2022/03/07 15:37:32;;;;;;;;;;;;;;;;;;;;;
2022/03/07 15:46:27;;;;;;;;;;;8.00;67.90;;;;;;4879368;29;19912;-89
2022/03/07 16:14:57;;;;;;;;;;;;;;;;;;;;;
2022/03/07 16:18:10;;;;;;;;;;;7.80;68.60;;;;;;4839019;29;19993;-87
2022/03/07 16:21:03;;;;;;;;;;;7.80;68.80;;;;;;4805437;29;19962;-88
2022/03/07 16:33:53;;;;;;;;;;;;;;;;;;;;;
2022/03/07 16:45:44;;;;;;;;;;;;;;;;;;;;;
2022/03/07 16:48:49;;;;;;;;;;;;;;;;;;;;;
2022/03/07 16:54:47;;;;;;;;;;;7.40;70.60;;;;;;4979253;28;19910;-87
2022/03/07 16:57:35;;;;;;;;;;;7.30;70.90;;;;;;4943559;28;20000;-86
2022/03/07 17:00:32;;;;;;;;;;;7.30;71.00;;;;;;4981470;28;20358;-88
2022/03/07 17:03:17;;;;;;;;;;;7.30;71.20;;;;;;4981760;28;19910;-86
2022/03/07 17:08:54;;;;;;;;;;;7.30;71.50;;;;;;4987940;28;20388;-86
2022/03/07 17:11:36;;;;;;;;;;;7.20;71.50;;;;;;4981592;28;20376;-86
2022/03/07 17:20:29;;;;;;;;;;;;;;;;;;;;;
2022/03/07 17:23:23;;;;;;;;;;;7.10;71.90;;;;;;4938376;29;19934;-89
2022/03/07 17:26:18;;;;;;;;;;;7.10;72.20;;;;;;4927803;29;19923;-86
2022/03/07 17:28:48;;;;;;;;;;;7.10;72.40;;;;;;4906273;29;19967;-86
2022/03/07 17:34:15;;;;;;;;;;;7.00;72.70;;;;;;4892311;29;20404;-85
2022/03/07 17:40:09;;;;;;;;;;;6.90;72.80;;;;;;4861470;29;19919;-87
2022/03/07 17:42:59;;;;;;;;;;;6.90;73.10;;;;;;4900039;29;19923;-86
2022/03/07 17:45:47;;;;;;;;;;;6.90;73.20;;;;;;4902923;29;19957;-88
2022/03/07 17:48:46;;;;;;;;;;;;;;;;;;;;;
2022/03/07 17:51:27;;;;;;;;;;;;;;;;;;;;;
2022/03/07 17:54:13;;;;;;;;;;;6.70;73.80;;;;;;4943619;28;19935;-89
2022/03/07 17:57:25;;;;;;;;;;;;;;;;;;;;;
2022/03/07 18:00:18;;;;;;;;;;;;;;;;;;;;;
2022/03/07 18:05:58;;;;;;;;;;;6.50;74.60;;;;;;4975816;28;19910;-87
2022/03/07 18:15:18;;;;;;;;;;;6.50;75.30;;;;;;4920851;29;20307;-87
2022/03/07 18:18:13;;;;;;;;;;;;;;;;;;;;;
2022/03/07 18:21:30;;;;;;;;;;;;;;;;;;;;;
2022/03/07 18:24:29;;;;;;;;;;;;;;;;;;;;;
2022/03/07 19:05:59;;;;;;;;;;;;;;;;;;;;;
2022/03/07 19:20:55;;;;;;;;;;;5.70;79.10;;;;;;4916853;29;19978;-87
2022/03/07 19:27:13;;;;;;;;;;;;;;;;;;;;;
2022/03/07 19:36:56;;;;;;;;;;;;;;;;;;;;;
2022/03/07 19:39:03;;;;;;;;;;;5.40;79.40;;;;;;4949348;29;19960;-87
2022/03/07 19:41:56;;;;;;;;;;;5.40;79.50;;;;;;4949138;29;19914;-89
2022/03/07 19:45:07;;;;;;;;;;;;;;;;;;;;;
2022/03/07 19:54:29;;;;;;;;;;;5.40;79.80;;;;;;4977474;28;19920;-88
2022/03/07 20:07:03;;;;;;;;;;;5.30;80.50;;;;;;4907397;29;19933;-89
2022/03/07 20:12:50;;;;;;;;;;;;;;;;;;;;;
2022/03/07 20:25:06;;;;;;;;;;;5.10;81.00;;;;;;4827269;29;20454;-89
2022/03/07 20:31:29;;;;;;;;;;;;;;;;;;;;;
2022/03/07 20:37:40;;;;;;;;;;;;;;;;;;;;;
2022/03/07 20:43:31;;;;;;;;;;;4.90;80.90;;;;;;4868179;29;19919;-92
2022/03/07 20:46:10;;;;;;;;;;;;;;;;;;;;;
2022/03/07 20:48:47;;;;;;;;;;;4.80;80.90;;;;;;4863830;29;19916;-87
2022/03/07 20:54:33;;;;;;;;;;;;;;;;;;;;;
2022/03/07 21:13:11;;;;;;;;;;;4.60;81.20;;;;;;4808545;29;20000;-88
2022/03/07 21:28:47;;;;;;;;;;;;;;;;;;;;;
2022/03/07 21:31:29;;;;;;;;;;;4.40;81.20;;;;;;4824034;29;19916;-86
2022/03/07 21:34:29;;;;;;;;;;;;;;;;;;;;;
2022/03/07 21:37:40;;;;;;;;;;;;;;;;;;;;;
2022/03/07 21:40:15;;;;;;;;;;;;;;;;;;;;;
2022/03/07 21:42:48;;;;;;;;;;;4.30;81.40;;;;;;4919273;29;20374;-88
2022/03/07 21:45:39;;;;;;;;;;;4.20;81.40;;;;;;4938376;29;19911;-87
2022/03/07 21:48:25;;;;;;;;;;;;;;;;;;;;;
2022/03/07 21:51:17;;;;;;;;;;;4.20;81.50;;;;;;4997816;28;19992;-87
2022/03/07 22:03:34;;;;;;;;;;;4.10;81.80;;;;;;4881620;29;19919;-86
2022/03/07 22:06:22;;;;;;;;;;;4.00;81.80;;;;;;4866195;29;20397;-86
2022/03/07 22:09:16;;;;;;;;;;;;;;;;;;;;;
2022/03/07 22:12:25;;;;;;;;;;;4.00;81.90;;;;;;4880557;29;19912;-87
2022/03/07 22:15:13;;;;;;;;;;;4.00;82.00;;;;;;4854033;29;20015;-86
2022/03/07 22:18:27;;;;;;;;;;;;;;;;;;;;;
2022/03/07 22:21:29;;;;;;;;;;;;;;;;;;;;;
2022/03/07 22:24:08;;;;;;;;;;;;;;;;;;;;;
2022/03/07 22:26:50;;;;;;;;;;;;;;;;;;;;;
2022/03/07 22:29:25;;;;;;;;;;;3.80;82.50;;;;;;4980163;28;20000;-86
2022/03/07 22:32:03;;;;;;;;;;;;;;;;;;;;;
2022/03/07 22:34:51;;;;;;;;;;;;;;;;;;;;;
2022/03/07 22:37:38;;;;;;;;;;;3.70;83.10;;;;;;4981239;28;19982;-84
2022/03/07 22:40:16;;;;;;;;;;;3.70;83.10;;;;;;4960343;28;19918;-83
2022/03/07 22:42:47;;;;;;;;;;;3.80;83.10;;;;;;4964261;28;19920;-85
2022/03/07 22:45:31;;;;;;;;;;;3.80;83.10;;;;;;4944022;28;19915;-86
2022/03/07 22:47:59;;;;;;;;;;;3.80;83.00;;;;;;4960058;28;19961;-87
2022/03/07 22:50:37;;;;;;;;;;;;;;;;;;;;;
2022/03/07 22:53:13;;;;;;;;;;;3.80;83.10;;;;;;4977034;28;19914;-86
2022/03/07 22:55:47;;;;;;;;;;;3.80;83.10;;;;;;4945327;28;19922;-86
2022/03/07 22:58:21;;;;;;;;;;;3.80;83.30;;;;;;4945626;28;19918;-86
2022/03/07 23:00:46;;;;;;;;;;;3.80;83.40;;;;;;4961380;28;19968;-85
2022/03/07 23:03:25;;;;;;;;;;;3.70;83.30;;;;;;4974930;28;19898;-91
2022/03/07 23:08:44;;;;;;;;;;;3.70;83.50;;;;;;4999279;28;19930;-87
2022/03/07 23:11:29;;;;;;;;;;;3.70;83.50;;;;;;4977194;28;20009;-90
2022/03/07 23:13:57;;;;;;;;;;;3.60;83.60;;;;;;4960193;28;19910;-87
2022/03/07 23:16:40;;;;;;;;;;;3.60;83.80;;;;;;4943655;28;19965;-87
2022/03/07 23:19:16;;;;;;;;;;;;;;;;;;;;;
2022/03/07 23:21:47;;;;;;;;;;;3.50;84.10;;;;;;4976907;28;20297;-86
2022/03/07 23:24:34;;;;;;;;;;;;;;;;;;;;;
2022/03/07 23:27:15;;;;;;;;;;;3.50;84.40;;;;;;4976628;28;19910;-87
2022/03/07 23:30:07;;;;;;;;;;;3.50;84.40;;;;;;4944088;28;20283;-87
2022/03/07 23:32:37;;;;;;;;;;;3.50;84.40;;;;;;4962962;28;19934;-87
2022/03/07 23:35:39;;;;;;;;;;;3.50;84.40;;;;;;4947698;28;20347;-86
2022/03/07 23:38:20;;;;;;;;;;;;;;;;;;;;;
2022/03/07 23:41:11;;;;;;;;;;;3.40;84.60;;;;;;4965870;28;20004;-87
2022/03/07 23:43:51;;;;;;;;;;;3.40;84.70;;;;;;4945995;29;19965;-87
2022/03/07 23:46:36;;;;;;;;;;;;;;;;;;;;;
2022/03/07 23:49:19;;;;;;;;;;;;;;;;;;;;;
2022/03/07 23:54:43;;;;;;;;;;;;;;;;;;;;;
2022/03/07 23:57:11;;;;;;;;;;;3.30;85.00;;;;;;4983803;28;20016;-85
2022/03/07 23:59:40;;;;;;;;;;;3.20;85.00;;;;;;4965089;28;20347;-86
